Carson City, Nevada
Current Conditions -  °F | °C
As of 12:55 PM on Thursday 27 Nov 2014 (Local Time) from KCXP Reporting Station
Clear Clear  
Wind Chill: 22°   Ceiling: Unl
Heat Index: 22°   Visibility: 10mi
Dew Point: -10°   Wind: 10mph
Humidity: 11%   Direction: 220°SW
Pressure: 30.2"   Gusts: 23mph
Location:  39.16°N, 119.77°W
Report Text: KCXP 272055Z AUTO 22009G20KT 10SM CLR 22/M10 A3020 RMK AO2
Loading
Personal Weather Stations






























Interactive Weather Map New forecast layout! Learn more

10-Day Weather Forecast

Advertisements
Track Severe Weather on mobile